To NAV CANADA Home Page Login to a new session Search on AWWS site Feedback and Comments Disclaimer Vers la page française équivalente Tips FAQ What's new on the site To the Forecasts and Observations / NOTAM section To "File a Flight Plan" website Publications and other links Update of the User's profile FIC Telephone Numbers My Weather Data Folder Route Weather Data Regional Weather Data Local Weather Data To the Forecasts and Observations / NOTAM section
Request Generated 10/17/2017 at 01:57:46 UTC . Weather information available at that time is displayed.

METAR/TAF

ST. JOHN'S/ST. JOHN'S INTL/NL    

METAR CYYT 170100Z 36012G19KT 15SM OVC013 08/05 A2976 RMK SC8 SLP083=
METAR CYYT 170000Z 36015KT 15SM OVC009 09/07 A2970 RMK ST8 PRESRR
SLP062=
SPECI CYYT 162345Z 34015KT 270V360 15SM BKN009 OVC035 12/10 A2968 RMK
SF6SC2 PRESRR SLP053 DENSITY ALT 500FT=
METAR CYYT 162300Z 28015G21KT 15SM BKN030 13/11 A2963 RMK SC6 PRESRR
SLP037 DENSITY ALT 700FT=

TAF AMD CYYT 170005Z 1700/1724 36015KT P6SM OVC009 TEMPO 1700/1701
OVC025
FM170100 34012G22KT P6SM OVC008 TEMPO 1701/1710 OVC015
BECMG 1707/1709 07012KT
FM171000 08012KT 5SM -SHRA BR BKN008 OVC015
FM171200 08012KT 2SM -SHRA BR OVC004 PROB30 1714/1716 1SM SHRA BR
OVC003
FM171700 01012KT P6SM -SHRA BKN008 OVC015
RMK NXT FCST BY 170600Z=
Your time UTC time
Weather data provided by Environment Canada and NAV CANADA